createdAt,value
2018-03-11T00:17:50.092Z,95.19
2018-03-11T00:38:27.993Z,95.63
2018-03-11T00:59:04.194Z,95.59
2018-03-11T01:19:37.627Z,95.51
2018-03-11T01:40:12.028Z,96.74
2018-03-11T02:00:47.257Z,96.28
2018-03-11T02:21:21.284Z,96.48
2018-03-11T02:41:52.257Z,96.41
2018-03-11T03:02:27.894Z,96.65
2018-03-11T03:23:03.720Z,96.23
2018-03-11T03:43:38.070Z,96.57
2018-03-11T04:04:10.269Z,95.69
2018-03-11T04:24:46.792Z,96.23
2018-03-11T04:45:23.188Z,95.76
2018-03-11T05:05:57.009Z,95.88
2018-03-11T05:44:32.167Z,96.41
2018-03-11T06:05:07.070Z,96.30
2018-03-11T06:25:44.189Z,96.47
2018-03-11T06:46:18.541Z,96.27
2018-03-11T07:06:56.882Z,96.19
2018-03-11T07:27:32.420Z,96.57
2018-03-11T07:48:05.276Z,96.56
2018-03-11T08:08:40.541Z,96.32
2018-03-11T08:29:19.811Z,96.93
2018-03-11T08:49:52.934Z,96.99
2018-03-11T09:10:32.563Z,96.56
2018-03-11T09:31:08.392Z,96.68
2018-03-11T09:51:41.821Z,97.01
2018-03-11T10:12:20.170Z,96.45
2018-03-11T10:32:55.491Z,95.55
2018-03-11T10:53:30.402Z,94.92
2018-03-11T11:14:06.291Z,94.28
2018-03-11T11:19:43.914Z,93.79
2018-03-11T11:40:18.267Z,94.96
2018-03-11T12:00:53.533Z,94.62
2018-03-11T12:21:31.877Z,94.71
2018-03-11T12:42:08.071Z,93.74
2018-03-11T13:02:44.563Z,90.69
2018-03-11T13:23:19.794Z,89.50
2018-03-11T13:43:50.512Z,85.74
2018-03-11T14:04:25.485Z,84.75
2018-03-11T14:25:00.131Z,84.96
2018-03-11T14:45:34.179Z,85.42
2018-03-11T15:06:12.522Z,87.07
2018-03-11T15:26:47.807Z,85.22
2018-03-11T15:47:22.146Z,87.52
2018-03-11T16:07:55.569Z,87.84
2018-03-11T16:28:37.603Z,90.39
2018-03-11T16:49:15.054Z,92.20
2018-03-11T17:09:51.290Z,93.04
2018-03-11T17:48:26.935Z,94.58
2018-03-11T18:09:03.465Z,94.62
2018-03-11T18:29:36.676Z,95.23
2018-03-11T18:50:13.040Z,94.88
2018-03-11T19:10:47.102Z,95.36
2018-03-11T19:31:19.912Z,94.07
2018-03-11T19:51:54.265Z,94.13
2018-03-11T20:12:28.784Z,94.02
2018-03-11T20:33:01.738Z,94.30
2018-03-11T20:53:35.787Z,93.99
2018-03-11T21:14:10.130Z,94.37
2018-03-11T21:34:44.653Z,94.21
2018-03-11T21:55:20.682Z,94.33
2018-03-11T22:15:56.872Z,94.52
2018-03-11T22:36:36.138Z,94.99
2018-03-11T22:57:14.489Z,94.89
2018-03-11T23:17:49.759Z,94.69
2018-03-11T23:38:24.720Z,94.57
2018-03-11T23:59:00.347Z,95.22
